createdAt,value
2022-08-20T00:02:11.256Z,21.50
2022-08-20T00:04:39.428Z,21.47
2022-08-20T00:07:06.578Z,21.44
2022-08-20T00:09:33.388Z,21.45
2022-08-20T00:12:04.243Z,21.45
2022-08-20T00:14:30.865Z,21.43
2022-08-20T00:17:02.171Z,21.41
2022-08-20T00:19:29.387Z,21.42
2022-08-20T00:21:58.147Z,21.40
2022-08-20T00:24:25.125Z,21.41
2022-08-20T00:26:52.803Z,21.41
2022-08-20T00:29:20.215Z,21.39
2022-08-20T00:31:46.972Z,21.37
2022-08-20T00:34:14.871Z,21.36
2022-08-20T00:36:41.457Z,21.32
2022-08-20T00:39:08.051Z,21.33
2022-08-20T00:41:34.642Z,21.32
2022-08-20T00:44:07.972Z,21.32
2022-08-20T00:46:35.533Z,21.32
2022-08-20T00:49:03.035Z,21.32
2022-08-20T00:51:35.561Z,21.32
2022-08-20T00:54:06.725Z,21.31
2022-08-20T00:56:33.930Z,21.30
2022-08-20T00:59:01.302Z,21.31
2022-08-20T01:01:28.200Z,21.31
2022-08-20T01:03:54.909Z,21.31
2022-08-20T01:06:21.523Z,21.33
2022-08-20T01:08:49.448Z,21.32
2022-08-20T01:11:15.973Z,21.31
2022-08-20T01:13:44.717Z,21.32
2022-08-20T01:16:18.746Z,21.33
2022-08-20T01:18:47.252Z,21.33
2022-08-20T01:21:14.586Z,21.34
2022-08-20T01:23:47.368Z,21.36
2022-08-20T01:26:18.929Z,21.37
2022-08-20T01:28:49.341Z,21.39
2022-08-20T01:31:20.135Z,21.40
2022-08-20T01:33:48.333Z,21.39
2022-08-20T01:36:16.936Z,21.38
2022-08-20T01:38:54.178Z,21.38
2022-08-20T01:41:44.133Z,21.41
2022-08-20T01:44:16.799Z,21.42
2022-08-20T01:46:48.252Z,21.42
2022-08-20T01:49:23.115Z,21.43
2022-08-20T01:51:51.371Z,21.43
2022-08-20T01:54:18.122Z,21.44
2022-08-20T01:56:57.097Z,21.46
2022-08-20T01:59:24.044Z,21.46
2022-08-20T02:01:51.696Z,21.45
2022-08-20T02:04:19.369Z,21.44
2022-08-20T02:06:56.598Z,21.44
2022-08-20T02:09:24.922Z,21.43
2022-08-20T02:11:52.885Z,21.42
2022-08-20T02:14:19.754Z,21.42
2022-08-20T02:16:54.768Z,21.39
2022-08-20T02:19:25.716Z,21.37
2022-08-20T02:21:56.651Z,21.35
2022-08-20T02:24:23.203Z,21.35
2022-08-20T02:26:50.980Z,21.35
2022-08-20T02:29:18.904Z,21.36
2022-08-20T02:32:24.351Z,21.37
2022-08-20T02:34:33.110Z,21.37
2022-08-20T02:36:59.684Z,21.36
2022-08-20T02:39:26.210Z,21.36
2022-08-20T02:41:53.446Z,21.35
2022-08-20T02:44:21.360Z,21.35
2022-08-20T02:46:48.269Z,21.34
2022-08-20T02:49:14.802Z,21.32
2022-08-20T02:51:41.385Z,21.31
2022-08-20T02:54:07.925Z,21.30
2022-08-20T02:56:35.092Z,21.31
2022-08-20T02:59:01.673Z,21.32
2022-08-20T03:01:29.635Z,21.34
2022-08-20T03:03:56.243Z,21.33
2022-08-20T03:06:22.946Z,21.33
2022-08-20T03:08:49.795Z,21.33
2022-08-20T03:11:16.438Z,21.33
2022-08-20T03:13:43.469Z,21.34
2022-08-20T03:16:10.640Z,21.32
2022-08-20T03:18:41.341Z,21.32
2022-08-20T03:21:09.886Z,21.32
2022-08-20T03:23:37.356Z,21.32
2022-08-20T03:26:08.905Z,21.32
2022-08-20T03:28:36.208Z,21.31
2022-08-20T03:31:03.301Z,21.31
2022-08-20T03:33:29.956Z,21.30
2022-08-20T03:35:58.200Z,21.29
2022-08-20T03:38:32.960Z,21.28
2022-08-20T03:41:01.054Z,21.28
2022-08-20T03:43:27.919Z,21.28
2022-08-20T03:45:54.774Z,21.27
2022-08-20T03:48:24.747Z,21.26
2022-08-20T03:50:51.497Z,21.26
2022-08-20T03:53:19.720Z,21.25
2022-08-20T03:55:53.903Z,21.23
2022-08-20T03:58:22.030Z,21.21
2022-08-20T04:01:01.948Z,21.20
2022-08-20T04:03:28.719Z,21.20
2022-08-20T04:05:55.249Z,21.18
2022-08-20T04:08:24.967Z,21.17
2022-08-20T04:10:51.888Z,21.16
2022-08-20T04:13:19.977Z,21.15
2022-08-20T04:15:50.011Z,21.17
2022-08-20T04:18:17.525Z,21.16
2022-08-20T04:20:44.113Z,21.16
2022-08-20T04:23:10.650Z,21.16
2022-08-20T04:25:38.664Z,21.17
2022-08-20T04:28:14.233Z,21.18
2022-08-20T04:30:41.406Z,21.17
2022-08-20T04:33:14.125Z,21.18
2022-08-20T04:35:45.823Z,21.17
2022-08-20T04:38:16.115Z,21.17
2022-08-20T04:40:44.339Z,21.17
2022-08-20T04:43:10.926Z,21.15
2022-08-20T04:45:39.456Z,21.14
2022-08-20T04:48:06.568Z,21.14
2022-08-20T04:50:33.897Z,21.15
2022-08-20T04:53:00.708Z,21.14
2022-08-20T04:55:27.299Z,21.10
2022-08-20T04:57:55.337Z,21.10
2022-08-20T05:00:21.998Z,21.08
2022-08-20T05:02:48.590Z,21.08
2022-08-20T05:05:15.228Z,21.08
2022-08-20T05:07:44.468Z,21.07
2022-08-20T05:10:13.123Z,21.07
2022-08-20T05:12:40.837Z,21.04
2022-08-20T05:15:10.245Z,21.02
2022-08-20T05:17:37.190Z,21.00
2022-08-20T05:20:05.260Z,21.01
2022-08-20T05:22:31.770Z,21.03
2022-08-20T05:24:58.442Z,21.05
2022-08-20T05:27:25.312Z,21.07
2022-08-20T05:29:51.864Z,21.10
2022-08-20T05:44:35.547Z,21.20
2022-08-20T05:47:02.136Z,21.22
2022-08-20T05:49:32.402Z,21.20
2022-08-20T05:51:58.998Z,21.20
2022-08-20T05:54:25.717Z,21.19
2022-08-20T05:56:52.205Z,21.18
2022-08-20T05:59:23.550Z,21.17
2022-08-20T06:01:50.990Z,21.19
2022-08-20T06:04:17.590Z,21.21
2022-08-20T06:06:47.347Z,21.23
2022-08-20T06:09:15.683Z,21.26
2022-08-20T06:11:42.363Z,21.26
2022-08-20T06:14:09.245Z,21.27
2022-08-20T06:16:37.431Z,21.29
2022-08-20T06:19:05.207Z,21.31
2022-08-20T06:21:32.034Z,21.33
2022-08-20T06:24:00.509Z,21.33
2022-08-20T06:26:29.864Z,21.34
2022-08-20T06:28:57.813Z,21.32
2022-08-20T06:31:24.376Z,21.36
2022-08-20T06:33:50.905Z,21.38
2022-08-20T06:36:18.788Z,21.41
2022-08-20T06:38:45.804Z,21.44
2022-08-20T06:41:13.789Z,21.46
2022-08-20T06:43:40.367Z,21.49
2022-08-20T06:46:07.033Z,21.53
2022-08-20T06:48:33.802Z,21.54
2022-08-20T06:51:00.691Z,21.55
2022-08-20T06:53:27.199Z,21.54
2022-08-20T06:55:56.301Z,21.54
2022-08-20T06:58:37.322Z,21.56
2022-08-20T07:01:09.938Z,21.57
2022-08-20T07:03:37.738Z,21.60
2022-08-20T07:06:04.506Z,21.64
2022-08-20T07:08:31.103Z,21.69
2022-08-20T07:10:57.936Z,21.71
2022-08-20T07:13:25.961Z,21.74
2022-08-20T07:15:54.081Z,21.79
2022-08-20T07:18:28.445Z,21.83
2022-08-20T07:20:55.172Z,21.89
2022-08-20T07:23:21.801Z,21.91
2022-08-20T07:25:48.379Z,21.90
2022-08-20T07:28:18.710Z,21.93
2022-08-20T07:30:55.795Z,21.93
2022-08-20T07:33:24.564Z,21.90
2022-08-20T07:35:51.218Z,21.88
2022-08-20T07:38:21.082Z,21.89
2022-08-20T07:40:47.913Z,21.91
2022-08-20T07:43:14.504Z,21.93
2022-08-20T07:45:41.070Z,21.94
2022-08-20T07:48:28.020Z,21.92
2022-08-20T07:51:00.191Z,21.91
2022-08-20T07:53:28.638Z,21.91
2022-08-20T07:55:59.431Z,21.91
2022-08-20T07:58:33.181Z,21.93
2022-08-20T08:01:00.375Z,21.95
2022-08-20T08:03:39.494Z,21.96
2022-08-20T08:06:15.050Z,21.98
2022-08-20T08:08:43.904Z,21.98
2022-08-20T08:11:12.113Z,22.01
2022-08-20T08:13:41.915Z,22.06
2022-08-20T08:16:09.867Z,22.12
2022-08-20T08:18:41.705Z,22.19
2022-08-20T08:21:09.670Z,22.27
2022-08-20T08:23:36.246Z,22.30
2022-08-20T08:26:02.969Z,22.30
2022-08-20T08:28:29.564Z,22.32
2022-08-20T08:30:56.467Z,22.36
2022-08-20T08:33:25.932Z,22.37
2022-08-20T08:35:54.044Z,22.38
2022-08-20T08:38:20.663Z,22.39
2022-08-20T08:40:47.239Z,22.42
2022-08-20T08:43:21.384Z,22.50
2022-08-20T08:45:54.509Z,22.53
2022-08-20T08:48:21.532Z,22.58
2022-08-20T08:50:53.909Z,22.63
2022-08-20T08:53:26.065Z,22.64
2022-08-20T08:55:52.639Z,22.63
2022-08-20T08:58:19.218Z,22.67
2022-08-20T09:00:52.737Z,22.70
2022-08-20T09:03:27.289Z,22.71
2022-08-20T09:05:57.529Z,22.70
2022-08-20T09:08:29.533Z,22.73
2022-08-20T09:11:02.097Z,22.74
2022-08-20T09:13:28.640Z,22.74
2022-08-20T09:15:55.347Z,22.79
2022-08-20T09:18:21.911Z,22.82
2022-08-20T09:20:48.490Z,22.85
2022-08-20T09:23:15.137Z,22.90
2022-08-20T09:25:43.048Z,22.90
2022-08-20T09:28:09.842Z,22.90
2022-08-20T09:30:36.426Z,22.88
2022-08-20T09:33:04.827Z,22.86
2022-08-20T09:35:31.375Z,22.87
2022-08-20T09:37:58.054Z,22.87
2022-08-20T09:40:24.747Z,22.89
2022-08-20T09:42:52.730Z,22.92
2022-08-20T09:45:19.720Z,22.95
2022-08-20T09:47:54.940Z,22.99
2022-08-20T09:50:24.269Z,23.02
2022-08-20T09:52:53.968Z,23.02
2022-08-20T09:55:31.457Z,23.03
2022-08-20T09:58:00.511Z,23.03
2022-08-20T10:00:27.175Z,23.06
2022-08-20T10:02:53.791Z,23.09
2022-08-20T10:05:20.380Z,23.11
2022-08-20T10:07:46.950Z,23.17
2022-08-20T10:10:15.452Z,23.24
2022-08-20T10:12:42.111Z,23.34
2022-08-20T10:15:11.311Z,23.35
2022-08-20T10:17:38.933Z,23.37
2022-08-20T10:20:06.796Z,23.36
2022-08-20T10:22:33.380Z,23.38
2022-08-20T10:25:00.150Z,23.38
2022-08-20T10:27:26.842Z,23.42
2022-08-20T10:29:53.507Z,23.40
2022-08-20T10:32:21.495Z,23.39
2022-08-20T10:34:48.392Z,23.39
2022-08-20T10:37:15.902Z,23.39
2022-08-20T10:39:43.047Z,23.41
2022-08-20T10:42:09.669Z,23.45
2022-08-20T10:44:36.525Z,23.53
2022-08-20T10:47:14.573Z,23.56
2022-08-20T10:49:42.445Z,23.56
2022-08-20T10:52:09.151Z,23.55
2022-08-20T10:54:35.759Z,23.60
2022-08-20T10:57:02.389Z,23.63
2022-08-20T10:59:28.979Z,23.64
2022-08-20T11:01:55.657Z,23.63
2022-08-20T11:04:22.322Z,23.63
2022-08-20T11:06:50.272Z,23.65
2022-08-20T11:09:16.955Z,23.69
2022-08-20T11:11:43.657Z,23.66
2022-08-20T11:14:10.346Z,23.64
2022-08-20T11:16:36.910Z,23.58
2022-08-20T11:19:03.645Z,23.57
2022-08-20T11:21:30.225Z,23.56
2022-08-20T11:24:02.307Z,23.51
2022-08-20T11:26:29.768Z,23.41
2022-08-20T11:28:56.392Z,23.36
2022-08-20T11:31:23.136Z,23.33
2022-08-20T11:33:49.741Z,23.32
2022-08-20T11:36:18.359Z,23.34
2022-08-20T11:38:44.897Z,23.38
2022-08-20T11:41:13.209Z,23.36
2022-08-20T11:43:40.859Z,23.37
2022-08-20T11:46:07.560Z,23.37
2022-08-20T11:48:34.140Z,23.39
2022-08-20T11:51:00.736Z,23.41
2022-08-20T11:53:27.363Z,23.41
2022-08-20T11:55:55.317Z,23.44
2022-08-20T11:58:23.650Z,23.49
2022-08-20T12:00:50.258Z,23.48
2022-08-20T12:03:17.102Z,23.50
2022-08-20T12:05:45.571Z,23.52
2022-08-20T12:08:26.684Z,23.53
2022-08-20T12:10:55.354Z,23.51
2022-08-20T12:13:24.221Z,23.48
2022-08-20T12:15:58.348Z,23.48
2022-08-20T12:18:27.011Z,23.45
2022-08-20T12:20:54.018Z,23.41
2022-08-20T12:23:20.657Z,23.40
2022-08-20T12:25:47.506Z,23.40
2022-08-20T12:28:15.138Z,23.39
2022-08-20T12:30:43.246Z,23.40
2022-08-20T12:33:09.819Z,23.38
2022-08-20T12:35:36.495Z,23.38
2022-08-20T12:38:04.286Z,23.39
2022-08-20T12:40:32.902Z,23.38
2022-08-20T12:42:59.888Z,23.35
2022-08-20T12:45:26.558Z,23.31
2022-08-20T12:48:01.342Z,23.32
2022-08-20T12:50:31.428Z,23.28
2022-08-20T12:52:58.730Z,23.25
2022-08-20T12:55:25.870Z,23.21
2022-08-20T12:57:54.015Z,23.20
2022-08-20T13:00:24.246Z,23.22
2022-08-20T13:02:52.580Z,23.22
2022-08-20T13:05:21.424Z,23.19
2022-08-20T13:07:48.840Z,23.19
2022-08-20T13:10:18.019Z,23.20
2022-08-20T13:12:44.805Z,23.20
2022-08-20T13:15:12.182Z,23.17
2022-08-20T13:17:39.704Z,23.18
2022-08-20T13:20:10.201Z,23.18
2022-08-20T13:22:38.198Z,23.21
2022-08-20T13:25:06.065Z,23.20
2022-08-20T13:27:33.041Z,23.19
2022-08-20T13:29:59.641Z,23.17
2022-08-20T13:32:26.363Z,23.14
2022-08-20T13:34:53.267Z,23.14
2022-08-20T13:37:25.118Z,23.13
2022-08-20T13:39:54.042Z,23.11
2022-08-20T13:42:22.027Z,23.09
2022-08-20T13:44:52.843Z,23.11
2022-08-20T13:47:22.090Z,23.13
2022-08-20T13:49:55.491Z,23.14
2022-08-20T13:52:21.850Z,23.14
2022-08-20T13:54:48.526Z,23.12
2022-08-20T13:57:18.967Z,23.13
2022-08-20T13:59:50.430Z,23.11
2022-08-20T14:02:17.730Z,23.09
2022-08-20T14:04:45.122Z,23.10
2022-08-20T14:07:13.369Z,23.10
2022-08-20T14:09:41.268Z,23.13
2022-08-20T14:12:08.863Z,23.19
2022-08-20T14:14:37.206Z,23.19
2022-08-20T14:17:14.316Z,23.23
2022-08-20T14:19:42.036Z,23.24
2022-08-20T14:22:08.700Z,23.24
2022-08-20T14:24:35.356Z,23.23
2022-08-20T14:27:03.092Z,23.23
2022-08-20T14:29:32.225Z,23.23
2022-08-20T14:32:05.844Z,23.26
2022-08-20T14:34:33.560Z,23.30
2022-08-20T14:37:09.991Z,23.34
2022-08-20T14:39:36.825Z,23.40
2022-08-20T14:42:03.567Z,23.47
2022-08-20T14:44:30.144Z,23.53
2022-08-20T14:46:56.828Z,23.60
2022-08-20T14:49:24.820Z,23.67
2022-08-20T14:51:51.424Z,23.73
2022-08-20T14:54:18.012Z,23.79
2022-08-20T14:56:44.624Z,23.81
2022-08-20T14:59:11.314Z,23.81
2022-08-20T15:01:37.945Z,23.81
2022-08-20T15:04:04.729Z,23.82
2022-08-20T15:06:34.963Z,23.83
2022-08-20T15:09:05.593Z,23.83
2022-08-20T15:11:34.596Z,23.84
2022-08-20T15:14:03.076Z,23.86
2022-08-20T15:16:29.683Z,23.87
2022-08-20T15:18:59.632Z,23.88
2022-08-20T15:21:27.539Z,23.91
2022-08-20T15:23:58.349Z,23.91
2022-08-20T15:26:24.998Z,23.91
2022-08-20T15:28:51.919Z,23.93
2022-08-20T15:31:18.584Z,23.92
2022-08-20T15:33:45.210Z,23.94
2022-08-20T15:36:12.081Z,23.95
2022-08-20T15:38:38.648Z,23.95
2022-08-20T15:41:06.828Z,23.97
2022-08-20T15:43:33.916Z,23.96
2022-08-20T15:46:03.637Z,23.96
2022-08-20T15:48:32.939Z,23.95
2022-08-20T15:51:14.548Z,23.95
2022-08-20T15:53:52.070Z,23.95
2022-08-20T15:56:31.768Z,23.94
2022-08-20T15:59:09.284Z,23.93
2022-08-20T16:01:44.524Z,23.91
2022-08-20T16:04:28.417Z,23.89
2022-08-20T16:07:01.005Z,23.88
2022-08-20T16:09:42.096Z,23.87
2022-08-20T16:12:13.557Z,23.84
2022-08-20T16:14:42.480Z,23.83
2022-08-20T16:17:14.057Z,23.83
2022-08-20T16:19:50.995Z,23.82
2022-08-20T16:22:19.584Z,23.82
2022-08-20T16:24:46.695Z,23.81
2022-08-20T16:27:24.349Z,23.81
2022-08-20T16:29:59.698Z,23.81
2022-08-20T16:32:36.143Z,23.80
2022-08-20T16:35:28.994Z,23.82
2022-08-20T16:37:59.431Z,23.81
2022-08-20T16:40:30.077Z,23.82
2022-08-20T16:43:01.854Z,23.81
2022-08-20T16:45:32.535Z,23.79
2022-08-20T16:48:01.735Z,23.78
2022-08-20T16:50:33.513Z,23.76
2022-08-20T16:53:00.723Z,23.74
2022-08-20T16:55:27.769Z,23.72
2022-08-20T16:57:54.772Z,23.71
2022-08-20T17:00:26.879Z,23.70
2022-08-20T17:02:56.198Z,23.67
2022-08-20T17:05:26.073Z,23.65
2022-08-20T17:07:58.829Z,23.63
2022-08-20T17:10:28.573Z,23.60
2022-08-20T17:12:57.932Z,23.57
2022-08-20T17:15:29.316Z,23.54
2022-08-20T17:17:56.108Z,23.51
2022-08-20T17:20:25.521Z,23.44
2022-08-20T17:23:12.615Z,23.30
2022-08-20T17:25:40.193Z,23.19
2022-08-20T17:28:14.571Z,23.02
2022-08-20T17:30:42.788Z,22.89
2022-08-20T17:33:22.414Z,22.79
2022-08-20T17:35:52.769Z,22.68
2022-08-20T17:38:32.257Z,22.57
2022-08-20T17:41:00.597Z,22.45
2022-08-20T17:43:29.373Z,22.38
2022-08-20T17:45:58.855Z,22.30
2022-08-20T17:48:29.451Z,22.26
2022-08-20T17:50:57.960Z,22.24
2022-08-20T17:53:28.437Z,22.21
2022-08-20T17:56:00.843Z,22.18
2022-08-20T17:58:41.766Z,22.16
2022-08-20T18:01:26.158Z,22.14
2022-08-20T18:03:53.315Z,22.15
2022-08-20T18:06:30.876Z,22.15
2022-08-20T18:09:03.312Z,22.15
2022-08-20T18:11:36.638Z,22.15
2022-08-20T18:14:14.096Z,22.14
2022-08-20T18:16:52.927Z,22.14
2022-08-20T18:19:47.874Z,22.14
2022-08-20T18:22:18.395Z,22.11
2022-08-20T18:24:51.883Z,22.10
2022-08-20T18:27:22.029Z,22.08
2022-08-20T18:29:55.197Z,22.06
2022-08-20T18:32:30.024Z,22.04
2022-08-20T18:35:09.477Z,22.03
2022-08-20T18:37:36.218Z,22.03
2022-08-20T18:40:14.388Z,22.01
2022-08-20T18:42:41.129Z,21.98
2022-08-20T18:45:08.998Z,21.97
2022-08-20T18:47:45.483Z,21.97
2022-08-20T18:50:24.720Z,21.96
2022-08-20T18:53:05.147Z,21.93
2022-08-20T18:55:36.459Z,21.90
2022-08-20T18:58:04.959Z,21.88
2022-08-20T19:00:36.923Z,21.86
2022-08-20T19:03:16.103Z,21.85
2022-08-20T19:06:04.027Z,21.82
2022-08-20T19:08:41.010Z,21.79
2022-08-20T19:11:26.255Z,21.78
2022-08-20T19:14:19.010Z,21.76
2022-08-20T19:16:49.003Z,21.74
2022-08-20T19:19:18.714Z,21.72
2022-08-20T19:21:45.502Z,21.71
2022-08-20T19:24:17.979Z,21.69
2022-08-20T19:26:48.376Z,21.67
2022-08-20T19:29:20.729Z,21.67
2022-08-20T19:31:48.234Z,21.64
2022-08-20T19:34:22.424Z,21.64
2022-08-20T19:36:55.549Z,21.62
2022-08-20T19:39:25.511Z,21.62
2022-08-20T19:41:58.675Z,21.62
2022-08-20T19:44:30.289Z,21.61
2022-08-20T19:46:58.652Z,21.61
2022-08-20T19:49:36.321Z,21.61
2022-08-20T19:52:21.529Z,21.60
2022-08-20T19:54:50.483Z,21.60
2022-08-20T19:57:18.821Z,21.59
2022-08-20T19:59:55.399Z,21.57
2022-08-20T20:02:23.980Z,21.57
2022-08-20T20:04:55.261Z,21.56
2022-08-20T20:07:28.110Z,21.56
2022-08-20T20:09:57.962Z,21.57
2022-08-20T20:12:24.942Z,21.56
2022-08-20T20:14:54.002Z,21.55
2022-08-20T20:17:23.718Z,21.54
2022-08-20T20:19:54.042Z,21.54
2022-08-20T20:22:25.801Z,21.53
2022-08-20T20:25:02.039Z,21.53
2022-08-20T20:27:29.463Z,21.53
2022-08-20T20:30:01.205Z,21.53
2022-08-20T20:32:28.941Z,21.53
2022-08-20T20:35:00.027Z,21.51
2022-08-20T20:37:49.814Z,21.51
2022-08-20T20:40:23.923Z,21.52
2022-08-20T20:43:00.113Z,21.52
2022-08-20T20:45:32.509Z,21.51
2022-08-20T20:47:59.168Z,21.51
2022-08-20T20:50:30.128Z,21.51
2022-08-20T20:52:58.201Z,21.51
2022-08-20T20:55:28.380Z,21.51
2022-08-20T20:57:56.372Z,21.49
2022-08-20T21:00:25.220Z,21.48
2022-08-20T21:02:52.537Z,21.48
2022-08-20T21:05:20.506Z,21.47
2022-08-20T21:07:51.893Z,21.47
2022-08-20T21:10:20.241Z,21.46
2022-08-20T21:12:51.947Z,21.47
2022-08-20T21:15:20.042Z,21.44
2022-08-20T21:17:46.658Z,21.44
2022-08-20T21:20:13.319Z,21.43
2022-08-20T21:22:40.094Z,21.44
2022-08-20T21:25:08.741Z,21.43
2022-08-20T21:27:35.866Z,21.42
2022-08-20T21:30:04.329Z,21.41
2022-08-20T21:32:30.969Z,21.40
2022-08-20T21:34:57.492Z,21.40
2022-08-20T21:37:24.054Z,21.39
2022-08-20T21:39:50.608Z,21.39
2022-08-20T21:42:28.106Z,21.38
2022-08-20T21:44:56.045Z,21.37
2022-08-20T21:47:22.605Z,21.36
2022-08-20T21:49:49.268Z,21.35
2022-08-20T21:52:15.881Z,21.35
2022-08-20T21:54:42.468Z,21.35
2022-08-20T21:57:14.407Z,21.35
2022-08-20T21:59:42.538Z,21.34
2022-08-20T22:02:09.704Z,21.34
2022-08-20T22:04:36.316Z,21.33
2022-08-20T22:07:04.051Z,21.31
2022-08-20T22:09:31.224Z,21.30
2022-08-20T22:12:00.912Z,21.30
2022-08-20T22:14:27.764Z,21.29
2022-08-20T22:16:55.687Z,21.28
2022-08-20T22:19:22.487Z,21.27
2022-08-20T22:21:49.222Z,21.28
2022-08-20T22:24:15.792Z,21.28
2022-08-20T22:26:42.751Z,21.27
2022-08-20T22:29:11.262Z,21.27
2022-08-20T22:31:40.412Z,21.27
2022-08-20T22:34:08.773Z,21.27
2022-08-20T22:36:36.009Z,21.25
2022-08-20T22:39:02.658Z,21.26
2022-08-20T22:41:29.366Z,21.26
2022-08-20T22:43:57.446Z,21.25
2022-08-20T22:46:26.834Z,21.25
2022-08-20T22:48:54.252Z,21.24
2022-08-20T22:51:26.654Z,21.25
2022-08-20T22:53:53.353Z,21.23
2022-08-20T22:56:22.003Z,21.23
2022-08-20T22:58:50.071Z,21.23
2022-08-20T23:01:17.275Z,21.22
2022-08-20T23:03:43.912Z,21.20
2022-08-20T23:06:11.156Z,21.18
2022-08-20T23:08:40.031Z,21.18
2022-08-20T23:11:06.686Z,21.16
2022-08-20T23:13:33.362Z,21.15
2022-08-20T23:16:00.781Z,21.13
2022-08-20T23:18:27.617Z,21.13
2022-08-20T23:20:56.674Z,21.10
2022-08-20T23:23:24.031Z,21.09
2022-08-20T23:25:52.788Z,21.04
2022-08-20T23:28:21.847Z,21.02
2022-08-20T23:30:48.562Z,21.00
2022-08-20T23:33:15.834Z,20.98
2022-08-20T23:35:43.776Z,20.96
2022-08-20T23:38:10.348Z,20.93
2022-08-20T23:40:37.559Z,20.91
2022-08-20T23:43:06.109Z,20.88
2022-08-20T23:45:33.446Z,20.87
2022-08-20T23:48:00.203Z,20.83
2022-08-20T23:50:29.024Z,20.79
2022-08-20T23:52:56.706Z,20.73
2022-08-20T23:55:23.914Z,20.69
2022-08-20T23:57:51.449Z,20.66
